createdAt,value
2022-12-28T00:01:31.761Z,2.55
2022-12-28T00:04:00.288Z,2.95
2022-12-28T00:06:27.569Z,3.25
2022-12-28T00:08:55.686Z,2.97
2022-12-28T00:11:27.503Z,3.05
2022-12-28T00:13:56.496Z,3.08
2022-12-28T00:16:32.188Z,3.65
2022-12-28T00:19:02.830Z,3.75
2022-12-28T00:21:30.270Z,3.40
2022-12-28T00:23:58.956Z,3.50
2022-12-28T00:26:28.047Z,3.50
2022-12-28T00:29:00.096Z,3.65
2022-12-28T00:31:31.294Z,3.50
2022-12-28T00:33:58.231Z,3.30
2022-12-28T00:37:10.916Z,3.35
2022-12-28T00:39:12.460Z,3.42
2022-12-28T00:41:39.309Z,3.15
2022-12-28T00:44:06.075Z,3.65
2022-12-28T00:46:32.933Z,3.83
2022-12-28T00:48:59.728Z,3.03
2022-12-28T00:51:26.588Z,3.00
2022-12-28T00:53:53.509Z,2.95
2022-12-28T00:56:22.453Z,2.75
2022-12-28T00:58:50.239Z,2.70
2022-12-28T01:01:22.631Z,2.70
2022-12-28T01:03:51.410Z,3.15
2022-12-28T01:06:20.181Z,3.00
2022-12-28T01:08:47.187Z,3.35
2022-12-28T01:11:20.443Z,2.95
2022-12-28T01:13:48.313Z,3.20
2022-12-28T01:16:17.750Z,3.00
2022-12-28T01:18:45.945Z,3.10
2022-12-28T01:21:18.248Z,3.13
2022-12-28T01:23:46.210Z,2.85
2022-12-28T01:26:13.734Z,3.40
2022-12-28T01:28:40.726Z,3.58
2022-12-28T01:31:14.160Z,3.15
2022-12-28T01:33:41.542Z,4.00
2022-12-28T01:36:09.477Z,2.95
2022-12-28T01:38:36.864Z,2.90
2022-12-28T01:41:07.549Z,3.08
2022-12-28T01:43:51.997Z,2.70
2022-12-28T01:46:18.857Z,3.75
2022-12-28T01:48:52.211Z,3.15
2022-12-28T01:51:21.630Z,3.13
2022-12-28T01:53:51.006Z,3.38
2022-12-28T01:56:18.239Z,3.28
2022-12-28T01:58:46.574Z,3.35
2022-12-28T02:01:13.498Z,3.42
2022-12-28T02:03:40.513Z,2.72
2022-12-28T02:06:10.751Z,3.03
2022-12-28T02:08:56.133Z,2.80
2022-12-28T02:11:23.573Z,2.50
2022-12-28T02:13:52.227Z,2.88
2022-12-28T02:16:19.561Z,3.13
2022-12-28T02:18:47.440Z,3.22
2022-12-28T02:21:51.383Z,3.30
2022-12-28T02:24:31.256Z,4.03
2022-12-28T02:27:02.754Z,4.43
2022-12-28T02:29:29.479Z,3.38
2022-12-28T02:31:58.989Z,3.60
2022-12-28T02:34:36.466Z,3.67
2022-12-28T02:37:10.157Z,3.60
2022-12-28T02:39:50.525Z,2.70
2022-12-28T02:42:19.307Z,3.15
2022-12-28T02:45:04.882Z,3.15
2022-12-28T02:47:50.455Z,3.33
2022-12-28T02:50:18.292Z,3.15
2022-12-28T02:53:39.526Z,3.65
2022-12-28T02:56:21.700Z,3.20
2022-12-28T02:58:54.602Z,3.47
2022-12-28T03:01:35.838Z,3.33
2022-12-28T03:04:18.516Z,3.03
2022-12-28T03:07:14.023Z,2.65
2022-12-28T03:10:19.797Z,2.70
2022-12-28T03:13:05.111Z,2.90
2022-12-28T03:15:37.638Z,2.85
2022-12-28T03:18:31.919Z,3.20
2022-12-28T03:21:20.889Z,3.33
2022-12-28T03:24:08.225Z,3.42
2022-12-28T03:26:56.916Z,3.17
2022-12-28T03:29:44.068Z,3.38
2022-12-28T03:32:11.625Z,2.90
2022-12-28T03:34:38.742Z,3.45
2022-12-28T03:37:12.346Z,3.08
2022-12-28T03:39:50.709Z,2.85
2022-12-28T03:42:54.924Z,2.70
2022-12-28T03:45:45.034Z,3.05
2022-12-28T03:48:15.098Z,3.13
2022-12-28T03:50:45.065Z,2.85
2022-12-28T03:53:11.880Z,2.65
2022-12-28T03:55:39.899Z,3.00
2022-12-28T03:58:07.044Z,2.92
2022-12-28T04:00:34.537Z,2.65
2022-12-28T04:03:02.106Z,2.65
2022-12-28T04:05:29.062Z,2.35
2022-12-28T04:07:55.906Z,2.65
2022-12-28T04:10:22.739Z,2.70
2022-12-28T04:12:53.947Z,3.08
2022-12-28T04:15:20.722Z,2.63
2022-12-28T04:17:47.511Z,2.33
2022-12-28T04:20:14.332Z,2.70
2022-12-28T04:22:41.107Z,3.05
2022-12-28T04:25:08.283Z,2.50
2022-12-28T04:27:35.131Z,2.22
2022-12-28T04:30:02.739Z,2.80
2022-12-28T04:32:29.525Z,2.50
2022-12-28T04:34:56.267Z,2.50
2022-12-28T04:37:23.049Z,3.30
2022-12-28T04:39:56.138Z,2.13
2022-12-28T04:42:25.998Z,2.50
2022-12-28T04:44:52.818Z,2.05
2022-12-28T04:47:19.652Z,2.30
2022-12-28T04:49:46.442Z,2.80
2022-12-28T04:52:13.651Z,2.10
2022-12-28T04:54:40.453Z,2.10
2022-12-28T04:57:07.344Z,2.67
2022-12-28T04:59:34.282Z,2.20
2022-12-28T05:02:02.855Z,3.17
2022-12-28T05:04:30.101Z,2.60
2022-12-28T05:06:57.324Z,1.95
2022-12-28T05:09:24.590Z,2.33
2022-12-28T05:11:51.825Z,2.10
2022-12-28T05:14:19.189Z,2.20
2022-12-28T05:16:46.371Z,2.03
2022-12-28T05:19:13.524Z,1.90
2022-12-28T05:21:40.718Z,1.85
2022-12-28T05:24:08.164Z,2.13
2022-12-28T05:26:35.919Z,1.75
2022-12-28T05:29:03.358Z,1.70
2022-12-28T05:31:30.627Z,1.70
2022-12-28T05:33:57.939Z,2.03
2022-12-28T05:36:26.649Z,1.90
2022-12-28T05:38:54.466Z,1.70
2022-12-28T05:41:22.993Z,1.38
2022-12-28T05:43:50.245Z,1.60
2022-12-28T05:46:22.313Z,1.63
2022-12-28T05:48:49.567Z,1.52
2022-12-28T05:51:18.121Z,1.55
2022-12-28T05:53:45.493Z,1.50
2022-12-28T05:56:14.935Z,1.25
2022-12-28T05:58:43.001Z,1.48
2022-12-28T06:01:10.293Z,1.50
2022-12-28T06:03:38.021Z,1.48
2022-12-28T06:06:06.499Z,2.08
2022-12-28T06:08:33.823Z,1.60
2022-12-28T06:11:04.874Z,1.58
2022-12-28T06:13:32.676Z,1.42
2022-12-28T06:15:59.849Z,1.65
2022-12-28T06:18:29.388Z,1.40
2022-12-28T06:21:02.698Z,1.40
2022-12-28T06:23:30.138Z,1.48
2022-12-28T06:25:58.765Z,2.05
2022-12-28T06:28:26.091Z,1.52
2022-12-28T06:30:53.358Z,1.83
2022-12-28T06:33:20.576Z,1.83
2022-12-28T06:35:47.765Z,1.50
2022-12-28T06:38:14.935Z,1.48
2022-12-28T06:41:11.818Z,1.23
2022-12-28T06:43:31.855Z,1.55
2022-12-28T06:45:59.133Z,1.33
2022-12-28T06:48:26.550Z,1.50
2022-12-28T06:51:00.846Z,1.23
2022-12-28T06:53:28.801Z,1.20
2022-12-28T06:55:57.084Z,1.40
2022-12-28T06:58:24.978Z,1.20
2022-12-28T07:00:52.618Z,1.08
2022-12-28T07:03:19.967Z,1.30
2022-12-28T07:05:47.203Z,1.08
2022-12-28T07:08:14.435Z,1.30
2022-12-28T07:10:41.962Z,1.48
2022-12-28T07:13:09.173Z,1.50
2022-12-28T07:15:36.742Z,1.20
2022-12-28T07:18:03.977Z,1.40
2022-12-28T07:20:34.180Z,1.42
2022-12-28T07:23:04.271Z,2.38
2022-12-28T07:25:31.637Z,1.40
2022-12-28T07:27:59.190Z,1.40
2022-12-28T07:30:27.803Z,1.38
2022-12-28T07:32:55.028Z,1.75
2022-12-28T07:35:22.210Z,1.38
2022-12-28T07:37:50.515Z,1.50
2022-12-28T07:40:17.914Z,1.60
2022-12-28T07:42:45.079Z,1.23
2022-12-28T07:45:12.899Z,1.35
2022-12-28T07:47:40.565Z,1.58
2022-12-28T07:50:07.879Z,1.58
2022-12-28T07:52:36.724Z,1.30
2022-12-28T07:55:04.227Z,1.65
2022-12-28T07:57:31.570Z,1.23
2022-12-28T07:59:58.714Z,1.75
2022-12-28T08:02:25.988Z,1.92
2022-12-28T08:04:53.244Z,1.58
2022-12-28T08:07:20.430Z,1.50
2022-12-28T08:09:47.608Z,1.70
2022-12-28T08:12:14.833Z,1.63
2022-12-28T08:14:42.932Z,1.70
2022-12-28T08:17:10.949Z,1.70
2022-12-28T08:19:40.891Z,1.60
2022-12-28T08:22:08.019Z,1.58
2022-12-28T08:24:35.749Z,1.48
2022-12-28T08:27:02.988Z,1.30
2022-12-28T08:29:30.349Z,1.45
2022-12-28T08:31:57.581Z,2.17
2022-12-28T08:34:27.123Z,1.40
2022-12-28T08:36:55.302Z,1.50
2022-12-28T08:39:22.693Z,1.70
2022-12-28T08:41:49.847Z,1.83
2022-12-28T08:44:17.094Z,1.60
2022-12-28T08:46:44.358Z,1.67
2022-12-28T08:49:11.984Z,1.70
2022-12-28T08:51:41.538Z,1.60
2022-12-28T08:54:09.571Z,1.60
2022-12-28T08:56:38.140Z,1.63
2022-12-28T08:59:05.618Z,1.30
2022-12-28T09:01:40.828Z,1.40
2022-12-28T09:04:12.806Z,1.42
2022-12-28T09:06:40.110Z,1.45
2022-12-28T09:09:08.680Z,1.50
2022-12-28T09:11:36.822Z,1.58
2022-12-28T09:14:05.149Z,1.70
2022-12-28T09:16:32.687Z,1.67
2022-12-28T09:19:00.977Z,1.60
2022-12-28T09:21:29.404Z,1.50
2022-12-28T09:23:56.740Z,1.98
2022-12-28T09:26:28.324Z,1.70
2022-12-28T09:28:56.663Z,1.60
2022-12-28T09:31:24.900Z,1.48
2022-12-28T09:36:49.149Z,1.15
2022-12-28T09:39:18.071Z,1.73
2022-12-28T09:41:57.882Z,1.50
2022-12-28T09:44:37.265Z,1.40
2022-12-28T09:47:13.310Z,1.55
2022-12-28T09:50:00.767Z,1.60
2022-12-28T09:52:32.209Z,1.50
2022-12-28T09:55:05.609Z,1.48
2022-12-28T09:57:36.173Z,1.50
2022-12-28T10:00:04.092Z,1.50
2022-12-28T10:02:33.534Z,1.38
2022-12-28T10:05:01.047Z,1.30
2022-12-28T10:07:28.381Z,1.50
2022-12-28T10:09:55.819Z,1.23
2022-12-28T10:12:43.709Z,1.15
2022-12-28T10:15:14.772Z,1.38
2022-12-28T10:17:42.172Z,1.45
2022-12-28T10:20:15.445Z,1.48
2022-12-28T10:22:49.674Z,1.77
2022-12-28T10:25:25.214Z,1.20
2022-12-28T10:27:52.716Z,1.23
2022-12-28T10:30:23.983Z,1.25
2022-12-28T10:33:01.749Z,1.35
2022-12-28T10:35:30.603Z,1.40
2022-12-28T10:38:04.183Z,1.27
2022-12-28T10:40:33.512Z,1.60
2022-12-28T10:43:04.254Z,1.83
2022-12-28T10:45:40.802Z,1.50
2022-12-28T10:48:15.765Z,1.02
2022-12-28T10:50:43.076Z,1.20
2022-12-28T10:53:29.119Z,1.30
2022-12-28T10:56:07.979Z,1.38
2022-12-28T10:58:35.546Z,1.30
2022-12-28T11:01:07.549Z,1.58
2022-12-28T11:03:37.175Z,1.00
2022-12-28T11:06:12.499Z,1.55
2022-12-28T11:08:40.550Z,1.27
2022-12-28T11:11:08.425Z,1.25
2022-12-28T11:13:35.710Z,1.17
2022-12-28T11:16:07.947Z,1.30
2022-12-28T11:18:38.023Z,1.20
2022-12-28T11:21:05.713Z,1.10
2022-12-28T11:23:34.812Z,1.00
2022-12-28T11:26:02.321Z,1.10
2022-12-28T11:28:29.779Z,1.38
2022-12-28T11:30:59.011Z,1.02
2022-12-28T11:33:29.798Z,1.17
2022-12-28T11:35:59.747Z,1.70
2022-12-28T11:38:42.522Z,0.90
2022-12-28T11:41:34.075Z,1.00
2022-12-28T11:44:04.657Z,1.20
2022-12-28T11:46:31.914Z,0.80
2022-12-28T11:49:03.672Z,0.75
2022-12-28T11:51:30.960Z,1.05
2022-12-28T11:54:00.067Z,0.95
2022-12-28T11:56:42.784Z,1.15
2022-12-28T11:59:42.170Z,1.05
2022-12-28T12:02:09.045Z,1.05
2022-12-28T12:04:42.084Z,1.17
2022-12-28T12:07:20.387Z,1.33
2022-12-28T12:09:48.894Z,0.98
2022-12-28T12:12:18.023Z,1.55
2022-12-28T12:14:45.633Z,1.40
2022-12-28T12:17:12.950Z,1.35
2022-12-28T12:19:43.312Z,1.13
2022-12-28T12:22:10.523Z,1.23
2022-12-28T12:24:44.269Z,1.20
2022-12-28T12:27:16.524Z,1.30
2022-12-28T12:29:57.904Z,0.93
2022-12-28T12:32:27.411Z,1.15
2022-12-28T12:35:15.045Z,1.33
2022-12-28T12:38:11.826Z,1.30
2022-12-28T12:40:57.607Z,0.95
2022-12-28T12:43:31.381Z,1.40
2022-12-28T12:46:22.040Z,0.82
2022-12-28T12:49:04.112Z,1.27
2022-12-28T12:51:54.687Z,1.15
2022-12-28T12:54:31.223Z,1.25
2022-12-28T12:57:04.321Z,1.17
2022-12-28T12:59:38.159Z,0.90
2022-12-28T13:02:24.441Z,1.05
2022-12-28T13:04:52.403Z,0.93
2022-12-28T13:07:27.135Z,0.80
2022-12-28T13:09:55.731Z,0.80
2022-12-28T13:12:24.325Z,1.10
2022-12-28T13:14:56.086Z,0.80
2022-12-28T13:17:23.597Z,0.90
2022-12-28T13:19:51.112Z,0.98
2022-12-28T13:22:28.498Z,1.10
2022-12-28T13:24:56.051Z,0.80
2022-12-28T13:27:23.536Z,0.80
2022-12-28T13:29:52.693Z,0.75
2022-12-28T13:32:37.520Z,1.00
2022-12-28T13:35:17.387Z,0.93
2022-12-28T13:37:44.696Z,0.82
2022-12-28T13:40:13.035Z,1.02
2022-12-28T13:42:53.519Z,1.00
2022-12-28T13:45:23.025Z,0.90
2022-12-28T13:47:52.390Z,1.38
2022-12-28T13:50:19.951Z,0.90
2022-12-28T13:52:56.922Z,1.00
2022-12-28T13:55:26.759Z,0.85
2022-12-28T13:57:59.426Z,1.10
2022-12-28T14:00:28.216Z,0.90
2022-12-28T14:02:56.314Z,0.80
2022-12-28T14:05:25.349Z,1.00
2022-12-28T14:07:53.785Z,1.10
2022-12-28T14:10:21.451Z,0.90
2022-12-28T14:12:49.624Z,0.90
2022-12-28T14:15:17.944Z,1.05
2022-12-28T14:17:46.794Z,1.17
2022-12-28T14:20:14.290Z,0.90
2022-12-28T14:22:41.856Z,1.10
2022-12-28T14:25:14.205Z,0.95
2022-12-28T14:27:43.227Z,1.00
2022-12-28T14:30:24.731Z,1.05
2022-12-28T14:32:52.894Z,0.70
2022-12-28T14:35:22.652Z,1.08
2022-12-28T14:37:57.876Z,1.08
2022-12-28T14:40:30.430Z,1.00
2022-12-28T14:42:58.419Z,0.90
2022-12-28T14:45:36.295Z,1.10
2022-12-28T14:48:32.558Z,1.10
2022-12-28T14:51:07.421Z,1.00
2022-12-28T14:53:34.943Z,0.90
2022-12-28T14:56:05.462Z,0.90
2022-12-28T14:58:51.035Z,0.70
2022-12-28T15:01:19.052Z,1.02
2022-12-28T15:03:56.823Z,0.82
2022-12-28T15:06:27.194Z,1.25
2022-12-28T15:08:55.660Z,0.80
2022-12-28T15:11:24.245Z,0.85
2022-12-28T15:13:51.173Z,0.80
2022-12-28T15:16:19.829Z,0.90
2022-12-28T15:18:46.913Z,0.80
2022-12-28T15:21:22.084Z,0.98
2022-12-28T15:23:53.186Z,1.35
2022-12-28T15:26:21.529Z,0.70
2022-12-28T15:28:48.453Z,0.90
2022-12-28T15:31:18.237Z,1.00
2022-12-28T15:33:46.062Z,0.93
2022-12-28T15:36:17.820Z,0.68
2022-12-28T15:38:46.745Z,1.10
2022-12-28T15:41:32.837Z,0.90
2022-12-28T15:43:59.678Z,1.00
2022-12-28T15:46:26.897Z,0.90
2022-12-28T15:48:53.899Z,1.00
2022-12-28T15:51:20.759Z,0.95
2022-12-28T15:53:48.007Z,0.90
2022-12-28T15:56:21.859Z,1.00
2022-12-28T15:58:48.949Z,0.90
2022-12-28T16:01:16.423Z,0.70
2022-12-28T16:03:43.506Z,0.82
2022-12-28T16:06:11.047Z,1.00
2022-12-28T16:08:38.429Z,0.98
2022-12-28T16:11:24.679Z,0.80
2022-12-28T16:13:55.049Z,0.75
2022-12-28T16:16:22.931Z,0.73
2022-12-28T16:18:50.708Z,0.70
2022-12-28T16:21:17.543Z,0.70
2022-12-28T16:23:45.784Z,0.80
2022-12-28T16:26:13.830Z,0.93
2022-12-28T16:28:41.062Z,0.95
2022-12-28T16:31:19.701Z,0.80
2022-12-28T16:33:46.669Z,0.80
2022-12-28T16:36:17.427Z,0.70
2022-12-28T16:38:45.015Z,0.90
2022-12-28T16:41:12.525Z,0.90
2022-12-28T16:43:39.328Z,0.73
2022-12-28T16:46:09.062Z,0.80
2022-12-28T16:48:37.099Z,0.73
2022-12-28T16:51:04.599Z,0.80
2022-12-28T16:53:33.529Z,0.90
2022-12-28T16:56:01.700Z,0.93
2022-12-28T16:58:30.142Z,0.85
2022-12-28T17:01:04.407Z,1.00
2022-12-28T17:03:31.732Z,0.68
2022-12-28T17:05:58.939Z,0.75
2022-12-28T17:08:26.330Z,0.57
2022-12-28T17:10:53.599Z,0.93
2022-12-28T17:13:20.605Z,0.90
2022-12-28T17:15:47.503Z,0.80
2022-12-28T17:18:14.630Z,0.77
2022-12-28T17:20:41.772Z,0.70
2022-12-28T17:23:08.769Z,0.80
2022-12-28T17:25:36.689Z,0.60
2022-12-28T17:28:04.325Z,0.77
2022-12-28T17:30:31.606Z,0.85
2022-12-28T17:32:58.388Z,1.00
2022-12-28T17:35:26.366Z,0.82
2022-12-28T17:37:53.238Z,0.90
2022-12-28T17:40:20.208Z,0.70
2022-12-28T17:42:47.132Z,0.90
2022-12-28T17:45:14.010Z,0.77
2022-12-28T17:47:40.930Z,1.00
2022-12-28T17:50:08.795Z,0.80
2022-12-28T17:52:35.654Z,0.90
2022-12-28T17:55:03.613Z,0.65
2022-12-28T17:57:35.332Z,0.98
2022-12-28T18:00:06.756Z,0.90
2022-12-28T18:02:33.892Z,0.70
2022-12-28T18:05:00.876Z,0.90
2022-12-28T18:07:28.067Z,1.00
2022-12-28T18:09:54.962Z,0.73
2022-12-28T18:12:21.831Z,0.98
2022-12-28T18:14:48.685Z,0.80
2022-12-28T18:17:19.312Z,0.70
2022-12-28T18:19:46.689Z,0.90
2022-12-28T18:22:13.884Z,0.50
2022-12-28T18:24:41.146Z,0.63
2022-12-28T18:27:08.576Z,0.90
2022-12-28T18:29:35.854Z,0.93
2022-12-28T18:32:03.233Z,1.25
2022-12-28T18:34:30.494Z,2.10
2022-12-28T18:36:57.364Z,1.35
2022-12-28T18:39:24.637Z,1.20
2022-12-28T18:41:51.459Z,0.70
2022-12-28T18:44:19.105Z,0.80
2022-12-28T18:46:46.243Z,0.82
2022-12-28T18:49:13.214Z,0.77
2022-12-28T18:51:40.451Z,0.70
2022-12-28T18:54:07.748Z,0.70
2022-12-28T18:56:35.205Z,0.82
2022-12-28T18:59:02.050Z,0.77
2022-12-28T19:04:18.501Z,0.93
2022-12-28T19:06:45.917Z,1.13
2022-12-28T19:09:13.697Z,1.10
2022-12-28T19:11:44.092Z,0.85
2022-12-28T19:14:14.035Z,1.00
2022-12-28T19:16:41.417Z,1.02
2022-12-28T19:19:08.333Z,0.80
2022-12-28T19:21:36.901Z,0.70
2022-12-28T19:24:07.207Z,1.10
2022-12-28T19:26:35.614Z,0.80
2022-12-28T19:29:03.635Z,1.10
2022-12-28T19:31:31.292Z,0.80
2022-12-28T19:33:58.609Z,1.00
2022-12-28T19:36:25.962Z,1.02
2022-12-28T19:38:56.698Z,0.90
2022-12-28T19:41:24.810Z,0.80
2022-12-28T19:43:52.097Z,1.08
2022-12-28T19:46:31.078Z,0.90
2022-12-28T19:49:00.077Z,0.98
2022-12-28T19:51:31.045Z,0.90
2022-12-28T19:53:58.821Z,0.90
2022-12-28T19:56:25.806Z,1.00
2022-12-28T19:58:56.462Z,0.98
2022-12-28T20:01:27.049Z,1.10
2022-12-28T20:03:55.059Z,1.25
2022-12-28T20:06:27.369Z,0.80
2022-12-28T20:09:00.200Z,0.80
2022-12-28T20:11:29.601Z,1.20
2022-12-28T20:14:02.179Z,1.00
2022-12-28T20:16:31.452Z,0.90
2022-12-28T20:18:58.842Z,0.98
2022-12-28T20:21:26.770Z,1.33
2022-12-28T20:23:55.011Z,1.20
2022-12-28T20:26:22.976Z,0.80
2022-12-28T20:28:51.567Z,0.82
2022-12-28T20:31:19.132Z,1.10
2022-12-28T20:33:46.984Z,1.17
2022-12-28T20:36:15.737Z,1.05
2022-12-28T20:38:43.531Z,1.05
2022-12-28T20:41:32.482Z,1.10
2022-12-28T20:44:01.270Z,0.98
2022-12-28T20:46:28.875Z,1.10
2022-12-28T20:48:56.552Z,1.10
2022-12-28T20:51:23.944Z,1.10
2022-12-28T20:53:51.385Z,0.90
2022-12-28T20:56:19.430Z,1.05
2022-12-28T20:58:47.160Z,0.80
2022-12-28T21:01:15.133Z,1.10
2022-12-28T21:03:42.880Z,1.55
2022-12-28T21:06:10.436Z,1.23
2022-12-28T21:08:37.788Z,1.45
2022-12-28T21:11:05.031Z,1.20
2022-12-28T21:13:32.702Z,1.30
2022-12-28T21:16:03.643Z,1.10
2022-12-28T21:18:30.958Z,1.27
2022-12-28T21:21:00.016Z,1.40
2022-12-28T21:23:28.180Z,1.27
2022-12-28T21:26:05.844Z,1.33
2022-12-28T21:28:34.529Z,1.15
2022-12-28T21:31:04.944Z,1.30
2022-12-28T21:33:32.881Z,1.27
2022-12-28T21:36:07.850Z,1.45
2022-12-28T21:38:37.567Z,1.48
2022-12-28T21:41:06.179Z,1.30
2022-12-28T21:43:33.871Z,1.30
2022-12-28T21:46:21.330Z,1.55
2022-12-28T21:48:48.624Z,1.50
2022-12-28T21:51:31.843Z,1.42
2022-12-28T21:53:59.940Z,1.55
2022-12-28T21:56:27.355Z,1.58
2022-12-28T21:58:55.108Z,1.38
2022-12-28T22:01:41.091Z,1.58
2022-12-28T22:04:29.112Z,1.35
2022-12-28T22:06:56.508Z,1.40
2022-12-28T22:09:42.572Z,1.83
2022-12-28T22:12:29.960Z,1.55
2022-12-28T22:15:15.895Z,1.30
2022-12-28T22:17:43.735Z,1.38
2022-12-28T22:20:12.225Z,1.50
2022-12-28T22:22:40.222Z,2.00
2022-12-28T22:25:07.745Z,1.85
2022-12-28T22:27:35.157Z,1.55
2022-12-28T22:30:02.418Z,1.65
2022-12-28T22:32:29.792Z,1.70
2022-12-28T22:34:58.351Z,1.30
2022-12-28T22:37:25.705Z,1.25
2022-12-28T22:39:53.037Z,1.30
2022-12-28T22:42:20.340Z,1.58
2022-12-28T22:44:47.558Z,1.48
2022-12-28T22:47:14.825Z,1.27
2022-12-28T22:49:42.100Z,1.58
2022-12-28T22:52:09.509Z,1.35
2022-12-28T22:54:36.885Z,1.40
2022-12-28T22:57:05.150Z,1.67
2022-12-28T22:59:32.436Z,1.45
2022-12-28T23:02:00.121Z,1.20
2022-12-28T23:04:27.561Z,1.90
2022-12-28T23:06:59.992Z,1.70
2022-12-28T23:09:30.478Z,1.73
2022-12-28T23:11:57.780Z,1.83
2022-12-28T23:14:46.327Z,1.60
2022-12-28T23:17:18.972Z,1.48
2022-12-28T23:20:05.936Z,1.83
2022-12-28T23:22:53.541Z,1.70
2022-12-28T23:25:42.109Z,1.90
2022-12-28T23:28:13.434Z,1.50
2022-12-28T23:30:44.216Z,2.13
2022-12-28T23:33:18.026Z,1.73
2022-12-28T23:35:46.074Z,1.60
2022-12-28T23:38:18.999Z,2.03
2022-12-28T23:40:45.866Z,1.70
2022-12-28T23:43:12.740Z,1.50
2022-12-28T23:45:39.691Z,1.98
2022-12-28T23:48:06.616Z,1.38
2022-12-28T23:50:33.521Z,1.63
2022-12-28T23:53:00.591Z,1.52
2022-12-28T23:55:27.747Z,1.75
2022-12-28T23:57:54.638Z,1.60
